createdAt,value
2023-03-15T14:18:02.986Z,3.42
2023-03-15T16:32:58.681Z,3.28
2023-03-15T16:35:36.475Z,3.67
2023-03-15T16:38:06.271Z,2.92
2023-03-15T16:40:35.876Z,2.92
2023-03-15T16:43:06.396Z,2.80
2023-03-15T16:45:33.616Z,3.45
2023-03-15T16:48:01.405Z,3.17
2023-03-15T16:50:30.082Z,3.10
2023-03-15T16:52:59.736Z,2.97
2023-03-15T16:55:30.431Z,3.40
2023-03-15T16:57:57.744Z,3.15
2023-03-15T17:00:26.014Z,3.03
2023-03-15T17:02:54.239Z,3.40
2023-03-15T17:05:24.894Z,2.70
2023-03-15T17:07:54.085Z,3.05
2023-03-15T17:10:31.461Z,2.80
2023-03-15T17:13:01.151Z,3.00
2023-03-15T17:15:29.900Z,2.78
2023-03-15T17:17:58.597Z,2.90
2023-03-15T17:20:27.436Z,2.40
2023-03-15T17:23:02.584Z,3.30
2023-03-15T17:25:31.090Z,2.90
2023-03-15T17:27:58.970Z,2.83
2023-03-15T17:30:29.140Z,2.83
2023-03-15T17:32:57.022Z,2.70
2023-03-15T17:35:54.815Z,2.50
2023-03-15T17:38:22.694Z,2.45
2023-03-15T17:40:53.882Z,2.60
2023-03-15T17:43:21.606Z,2.45
2023-03-15T17:45:49.001Z,2.60
2023-03-15T17:48:16.607Z,2.53
2023-03-15T17:50:46.699Z,2.30
2023-03-15T17:53:20.106Z,2.90
2023-03-15T17:55:48.268Z,2.60
2023-03-15T17:58:23.714Z,2.78
2023-03-15T18:00:53.845Z,2.65
2023-03-15T18:03:23.199Z,2.75
2023-03-15T18:05:53.930Z,2.50
2023-03-15T18:08:21.811Z,2.28
2023-03-15T18:10:50.713Z,2.17
2023-03-15T18:13:21.477Z,2.20
2023-03-15T18:15:49.906Z,2.13
2023-03-15T18:18:17.499Z,2.50
2023-03-15T18:20:47.365Z,2.63
2023-03-15T18:23:16.074Z,2.30
2023-03-15T18:25:43.947Z,2.58
2023-03-15T18:28:12.328Z,2.30
2023-03-15T18:30:40.413Z,2.55
2023-03-15T18:33:07.632Z,2.40
2023-03-15T18:35:36.870Z,2.45
2023-03-15T18:38:05.446Z,2.35
2023-03-15T18:40:35.063Z,2.50
2023-03-15T18:43:05.580Z,2.72
2023-03-15T18:45:34.741Z,2.67
2023-03-15T18:48:02.001Z,2.53
2023-03-15T18:50:29.779Z,3.08
2023-03-15T18:52:57.406Z,2.50
2023-03-15T18:55:24.637Z,2.45
2023-03-15T18:57:53.881Z,2.33
2023-03-15T19:00:27.081Z,2.33
2023-03-15T19:03:04.894Z,2.47
2023-03-15T19:05:35.047Z,2.47
2023-03-15T19:08:02.806Z,2.15
2023-03-15T19:10:30.034Z,2.35
2023-03-15T19:12:57.143Z,2.22
2023-03-15T19:15:24.751Z,2.20
2023-03-15T19:17:54.636Z,2.38
